Palmer, Illinois
Current Conditions -  °F | °C
As of 2:35 AM on Sunday 23 Nov 2014 (Local Time) from KTAZ Reporting Station
Broken Clouds Broken Clouds  
Wind Chill: 50°   Ceiling: 11000
Heat Index: 50°   Visibility: 10mi
Dew Point: 43°   Wind: 13mph
Humidity: 76%   Direction: 180°S
Pressure: 29.81"   Gusts: 17mph
Location:  39.46°N, 89.4°W
Report Text: KTAZ 230835Z AUTO 18011G15KT 10SM SCT085 BKN110 10/06 A2981 RMK AO2
Loading
Personal Weather Stations






























Interactive Weather Map New forecast layout! Learn more

10-Day Weather Forecast

Advertisements
Track Severe Weather on mobile